Time;durP1;ratioP1;P1;durP2;ratioP2;P2;SDS_P1;SDS_P2;PMS_P1;PMS_P2;Temp;Humidity;BMP_temperature;BMP_pressure;BME280_temperature;BME280_humidity;BME280_pressure;Samples;Min_cycle;Max_cycle;Signal;HPM_P1;HPM_P2
2023/09/05 00:00:10;;;;;;;1.47;0.90;;;21.00;94.70;;;;;;4991659;28;20479;-83
2023/09/05 00:03:02;;;;;;;1.50;0.90;;;20.90;94.50;;;;;;4991122;28;20489;-82
2023/09/05 00:05:32;;;;;;;1.47;0.90;;;20.90;94.40;;;;;;4996153;28;20461;-85
2023/09/05 00:08:07;;;;;;;1.50;1.00;;;20.90;94.40;;;;;;4995659;28;20497;-85
2023/09/05 00:10:34;;;;;;;1.47;0.90;;;20.90;94.60;;;;;;4992223;28;20551;-85
2023/09/05 00:13:14;;;;;;;1.50;1.00;;;20.80;94.80;;;;;;5000022;28;20487;-86
2023/09/05 00:15:53;;;;;;;1.47;0.90;;;20.80;94.50;;;;;;4979286;28;20466;-85
2023/09/05 00:21:07;;;;;;;1.50;1.00;;;20.80;94.30;;;;;;4956390;28;20466;-85
2023/09/05 00:29:59;;;;;;;1.47;0.90;;;20.80;94.30;;;;;;4921670;29;20499;-85
2023/09/05 00:35:48;;;;;;;1.50;0.90;;;20.90;94.00;;;;;;4980593;28;20461;-85
2023/09/05 00:53:46;;;;;;;1.50;1.00;;;20.70;94.50;;;;;;4785659;29;20493;-85
2023/09/05 00:56:46;;;;;;;1.50;0.90;;;20.60;94.50;;;;;;4816369;29;20484;-84
2023/09/05 01:06:02;;;;;;;1.43;0.90;;;20.40;95.70;;;;;;4873200;29;20953;-84
2023/09/05 01:12:47;;;;;;;1.47;0.90;;;20.30;96.40;;;;;;4798337;29;20507;-85
2023/09/05 01:15:14;;;;;;;1.43;0.90;;;20.20;96.50;;;;;;4809707;29;20560;-84
2023/09/05 01:18:09;;;;;;;1.47;0.90;;;20.20;96.70;;;;;;4824384;29;20559;-83
2023/09/05 01:24:24;;;;;;;1.50;1.00;;;20.10;96.80;;;;;;4884961;29;20495;-84
2023/09/05 01:27:41;;;;;;;1.50;0.90;;;20.10;97.00;;;;;;4932760;28;20474;-84
2023/09/05 01:30:12;;;;;;;1.43;0.90;;;20.00;97.00;;;;;;4913551;29;20492;-85
2023/09/05 01:32:56;;;;;;;;;;;;;;;;;;;;;
2023/09/05 01:39:00;;;;;;;;;;;;;;;;;;;;;
2023/09/05 01:41:38;;;;;;;1.43;0.90;;;20.00;96.90;;;;;;4934129;28;20490;-84
2023/09/05 01:44:14;;;;;;;1.50;0.90;;;19.90;96.40;;;;;;4946997;28;20470;-83
2023/09/05 01:53:05;;;;;;;1.43;0.90;;;20.00;96.40;;;;;;4893300;29;20496;-84
2023/09/05 01:59:05;;;;;;;1.43;0.90;;;19.90;96.80;;;;;;4866787;29;20481;-84
2023/09/05 02:01:39;;;;;;;1.50;0.90;;;19.90;96.80;;;;;;4888319;29;20524;-84
2023/09/05 02:04:10;;;;;;;1.47;0.93;;;19.90;96.70;;;;;;4896562;29;20553;-84
2023/09/05 02:06:55;;;;;;;1.50;1.00;;;19.80;96.90;;;;;;4888660;29;20777;-83
2023/09/05 02:09:22;;;;;;;1.47;0.90;;;19.80;97.00;;;;;;4902195;29;20845;-83
2023/09/05 02:12:16;;;;;;;1.50;0.90;;;19.80;97.20;;;;;;4941153;28;20477;-84
2023/09/05 02:15:04;;;;;;;1.47;0.90;;;19.80;97.10;;;;;;4943821;28;20443;-84
2023/09/05 02:17:41;;;;;;;1.50;1.00;;;19.70;97.30;;;;;;4951443;28;21112;-84
2023/09/05 02:20:14;;;;;;;1.47;0.90;;;19.70;97.70;;;;;;4941887;29;20530;-84
2023/09/05 02:22:53;;;;;;;1.47;0.90;;;19.70;97.30;;;;;;4945278;28;20481;-84
2023/09/05 02:25:54;;;;;;;1.47;0.90;;;19.60;97.40;;;;;;4939778;29;20468;-83
2023/09/05 02:28:25;;;;;;;1.40;0.90;;;19.60;97.60;;;;;;4902566;29;21044;-84
2023/09/05 02:31:45;;;;;;;1.47;0.90;;;19.60;97.70;;;;;;4930626;28;20578;-84
2023/09/05 02:38:00;;;;;;;1.50;0.90;;;19.60;97.40;;;;;;4902968;29;20453;-84
2023/09/05 02:41:03;;;;;;;1.50;1.20;;;19.50;97.60;;;;;;4896838;29;20987;-83
2023/09/05 02:43:48;;;;;;;1.47;0.90;;;19.50;97.60;;;;;;4934432;29;21129;-84
2023/09/05 02:46:30;;;;;;;1.50;0.90;;;19.50;97.50;;;;;;4934226;28;20479;-82
2023/09/05 02:49:13;;;;;;;1.50;0.90;;;19.50;97.70;;;;;;4956406;28;20558;-85
2023/09/05 02:51:43;;;;;;;1.47;1.00;;;19.50;97.80;;;;;;4943293;28;20478;-84
2023/09/05 02:54:58;;;;;;;1.50;1.00;;;19.50;98.00;;;;;;4952851;28;20462;-83
2023/09/05 03:01:49;;;;;;;1.47;0.90;;;19.50;98.20;;;;;;4918707;28;20451;-84
2023/09/05 03:04:32;;;;;;;1.50;1.00;;;19.50;98.20;;;;;;4957466;28;20511;-83
2023/09/05 03:13:50;;;;;;;1.43;0.90;;;19.50;98.20;;;;;;4951232;28;20470;-84
2023/09/05 03:29:35;;;;;;;1.43;0.90;;;19.50;97.10;;;;;;4829474;29;20523;-84
2023/09/05 03:32:07;;;;;;;1.40;0.90;;;19.50;97.30;;;;;;4849834;29;20519;-83
2023/09/05 03:47:30;;;;;;;;;;;;;;;;;;;;;
2023/09/05 04:03:58;;;;;;;;;;;;;;;;;;;;;
2023/09/05 04:06:25;;;;;;;1.43;0.90;;;19.40;97.80;;;;;;4907605;23;20486;-80
2023/09/05 04:08:52;;;;;;;1.47;1.00;;;19.40;98.00;;;;;;4968759;28;20999;-81
2023/09/05 04:11:18;;;;;;;1.43;0.90;;;19.40;97.90;;;;;;4955221;28;20884;-82
2023/09/05 04:13:47;;;;;;;1.43;0.90;;;19.40;97.80;;;;;;4965914;28;20992;-82
2023/09/05 04:16:13;;;;;;;1.47;0.97;;;19.30;98.00;;;;;;4953793;28;20572;-80
2023/09/05 04:18:40;;;;;;;1.50;0.90;;;19.30;98.00;;;;;;4971057;28;20467;-81
2023/09/05 04:21:07;;;;;;;1.47;1.00;;;19.30;97.90;;;;;;4944790;28;20467;-83
2023/09/05 04:23:34;;;;;;;1.47;0.90;;;19.30;98.10;;;;;;4965202;28;20465;-82
2023/09/05 04:26:02;;;;;;;1.40;0.90;;;19.30;98.20;;;;;;4943048;28;20515;-83
2023/09/05 04:28:30;;;;;;;1.47;0.90;;;19.20;98.20;;;;;;4973247;28;20471;-81
2023/09/05 04:31:02;;;;;;;1.47;0.90;;;19.20;98.20;;;;;;4941793;28;20494;-80
2023/09/05 04:33:32;;;;;;;1.47;0.90;;;19.20;98.20;;;;;;4973893;28;20497;-83
2023/09/05 04:35:59;;;;;;;1.50;1.20;;;19.20;98.20;;;;;;4942375;28;20486;-79
2023/09/05 04:38:27;;;;;;;1.50;0.90;;;19.10;98.20;;;;;;4978687;28;21013;-79
2023/09/05 04:40:54;;;;;;;1.43;0.90;;;19.10;98.20;;;;;;4942522;28;20474;-79
2023/09/05 04:43:21;;;;;;;1.40;0.90;;;19.10;98.20;;;;;;4972121;28;20475;-79
2023/09/05 04:45:54;;;;;;;1.40;0.90;;;19.10;98.20;;;;;;4938869;28;20491;-77
2023/09/05 04:48:22;;;;;;;1.43;0.97;;;19.10;98.20;;;;;;4957065;28;20475;-78
2023/09/05 04:50:48;;;;;;;1.40;0.90;;;19.10;98.20;;;;;;4939196;28;20896;-77
2023/09/05 04:53:15;;;;;;;1.43;0.90;;;19.10;98.20;;;;;;4961256;28;20471;-79
2023/09/05 04:55:43;;;;;;;1.43;0.90;;;19.10;98.20;;;;;;4950713;28;20581;-80
2023/09/05 04:58:15;;;;;;;1.43;0.90;;;19.10;98.20;;;;;;4958275;28;20509;-79
2023/09/05 05:00:47;;;;;;;1.47;0.90;;;19.10;98.20;;;;;;4949842;28;20471;-81
2023/09/05 05:03:14;;;;;;;1.50;0.90;;;19.10;97.70;;;;;;4945242;28;20482;-80
2023/09/05 05:05:49;;;;;;;1.50;1.00;;;19.20;97.50;;;;;;4952978;28;20526;-79
2023/09/05 05:08:16;;;;;;;1.43;0.90;;;19.20;97.50;;;;;;4941966;28;20486;-79
2023/09/05 05:10:43;;;;;;;1.43;0.90;;;19.20;97.10;;;;;;4954426;28;20462;-79
2023/09/05 05:13:10;;;;;;;1.47;0.90;;;19.30;97.10;;;;;;4957939;28;20479;-80
2023/09/05 05:15:37;;;;;;;1.40;0.90;;;19.30;97.20;;;;;;4952410;28;20513;-80
2023/09/05 05:18:04;;;;;;;1.47;0.90;;;19.30;97.10;;;;;;4951713;28;20565;-80
2023/09/05 05:20:53;;;;;;;1.50;0.90;;;19.30;97.10;;;;;;4956487;28;20481;-78
2023/09/05 05:23:21;;;;;;;1.50;0.90;;;19.30;97.30;;;;;;4942251;28;20537;-82
2023/09/05 05:25:48;;;;;;;1.47;0.90;;;19.30;97.10;;;;;;4945632;28;20581;-80
2023/09/05 05:28:15;;;;;;;1.50;0.90;;;19.30;97.40;;;;;;4968844;28;20474;-79
2023/09/05 05:30:44;;;;;;;1.47;0.90;;;19.40;97.10;;;;;;4955439;28;20558;-79
2023/09/05 05:33:11;;;;;;;1.50;0.90;;;19.40;97.30;;;;;;4957280;28;20550;-79
2023/09/05 05:35:38;;;;;;;1.43;0.90;;;19.40;97.20;;;;;;4951811;28;20534;-79
2023/09/05 05:38:05;;;;;;;1.50;0.90;;;19.40;97.10;;;;;;4954662;28;20482;-81
2023/09/05 05:40:33;;;;;;;1.50;1.10;;;19.50;96.90;;;;;;4949956;28;20582;-79
2023/09/05 05:43:03;;;;;;;1.50;0.90;;;19.50;97.10;;;;;;4961154;28;20552;-80
2023/09/05 05:45:30;;;;;;;1.43;0.90;;;19.60;97.20;;;;;;4951333;28;20487;-78
2023/09/05 05:47:57;;;;;;;1.43;0.93;;;19.60;97.40;;;;;;4952825;28;20504;-82
2023/09/05 05:50:23;;;;;;;1.47;0.90;;;19.60;97.40;;;;;;4956538;28;20482;-77
2023/09/05 05:52:50;;;;;;;1.40;0.90;;;19.70;97.40;;;;;;4958524;28;20999;-81
2023/09/05 05:55:17;;;;;;;1.47;0.90;;;19.70;97.40;;;;;;4954325;28;20526;-79
2023/09/05 05:57:45;;;;;;;1.40;0.90;;;19.80;96.80;;;;;;4955682;28;20578;-80
2023/09/05 06:00:13;;;;;;;1.50;0.97;;;19.90;96.60;;;;;;4955719;28;20482;-79
2023/09/05 06:02:40;;;;;;;1.50;0.90;;;20.00;96.70;;;;;;4960491;28;20694;-81
2023/09/05 06:05:08;;;;;;;1.80;1.30;;;20.00;96.50;;;;;;4955648;28;20463;-81
2023/09/05 06:07:35;;;;;;;1.50;1.00;;;20.10;96.30;;;;;;4953930;28;20502;-82
2023/09/05 06:10:02;;;;;;;1.50;0.90;;;20.30;96.40;;;;;;4956024;28;20526;-76
2023/09/05 06:12:29;;;;;;;1.50;1.00;;;20.40;95.60;;;;;;4955290;28;20489;-82
2023/09/05 06:14:57;;;;;;;1.50;1.00;;;20.50;95.40;;;;;;4957994;28;20466;-81
2023/09/05 06:17:24;;;;;;;1.50;0.90;;;20.60;95.00;;;;;;4956631;28;21036;-79
2023/09/05 06:20:00;;;;;;;1.50;0.90;;;20.70;95.50;;;;;;4956424;28;20570;-80
2023/09/05 06:22:47;;;;;;;1.50;0.90;;;20.90;94.80;;;;;;4966936;28;20546;-82
2023/09/05 06:25:14;;;;;;;1.43;0.90;;;20.90;94.10;;;;;;4952544;28;20998;-80
2023/09/05 06:27:43;;;;;;;1.47;0.90;;;21.10;94.30;;;;;;4947938;28;20622;-81
2023/09/05 06:30:12;;;;;;;1.43;0.90;;;21.20;93.70;;;;;;4957420;28;20546;-79
2023/09/05 06:32:40;;;;;;;1.50;0.90;;;21.30;93.20;;;;;;4953160;28;20521;-80
2023/09/05 06:35:07;;;;;;;1.50;1.00;;;21.40;93.10;;;;;;4954660;28;20604;-81
2023/09/05 06:37:34;;;;;;;1.50;1.07;;;21.50;93.20;;;;;;4954651;28;20482;-81
2023/09/05 06:40:03;;;;;;;1.50;0.90;;;21.60;92.90;;;;;;4955091;28;20471;-79
2023/09/05 06:42:30;;;;;;;1.47;0.90;;;21.80;92.40;;;;;;4957169;28;20509;-80
2023/09/05 06:44:57;;;;;;;1.50;0.90;;;21.80;92.00;;;;;;4953872;28;20537;-80
2023/09/05 06:47:25;;;;;;;1.47;0.90;;;21.90;92.00;;;;;;4957273;28;20486;-81
2023/09/05 06:49:52;;;;;;;1.50;0.90;;;22.10;92.30;;;;;;4956981;28;20463;-81
2023/09/05 06:52:18;;;;;;;1.50;0.90;;;22.20;91.50;;;;;;4955435;28;20503;-82
2023/09/05 06:54:48;;;;;;;1.50;0.90;;;22.30;91.10;;;;;;4955707;28;20467;-82
2023/09/05 06:57:16;;;;;;;1.50;0.90;;;22.40;90.70;;;;;;4956380;28;20529;-83
2023/09/05 06:59:43;;;;;;;1.43;0.90;;;22.50;90.60;;;;;;4959404;28;20480;-81
2023/09/05 07:02:09;;;;;;;3.10;2.40;;;22.50;90.80;;;;;;4956592;28;20561;-81
2023/09/05 07:04:37;;;;;;;1.50;0.90;;;22.60;90.10;;;;;;4957748;28;20477;-80
2023/09/05 07:07:05;;;;;;;1.50;0.90;;;22.70;89.70;;;;;;4954125;28;20588;-82
2023/09/05 07:09:33;;;;;;;1.43;0.90;;;22.70;89.40;;;;;;4959414;28;21033;-79
2023/09/05 07:12:04;;;;;;;1.50;0.90;;;22.80;90.30;;;;;;4952524;28;20561;-81
2023/09/05 07:14:31;;;;;;;1.43;0.90;;;22.90;89.40;;;;;;4961040;28;20466;-81
2023/09/05 07:16:58;;;;;;;1.50;0.90;;;23.00;89.50;;;;;;4955876;28;20493;-81
2023/09/05 07:19:25;;;;;;;1.43;0.90;;;23.10;89.20;;;;;;4960536;28;20469;-82
2023/09/05 07:21:53;;;;;;;1.40;0.90;;;23.20;89.10;;;;;;4951675;28;21033;-81
2023/09/05 07:24:20;;;;;;;1.40;0.90;;;23.40;88.90;;;;;;4957387;28;20513;-80
2023/09/05 07:26:47;;;;;;;1.50;0.90;;;23.40;88.60;;;;;;4948030;28;20512;-81
2023/09/05 07:29:15;;;;;;;1.47;0.90;;;23.50;88.30;;;;;;4959918;28;20477;-81
2023/09/05 07:31:46;;;;;;;1.43;0.90;;;23.50;87.80;;;;;;4952222;28;20478;-79
2023/09/05 07:34:13;;;;;;;1.50;0.90;;;23.60;87.30;;;;;;4958831;28;20474;-83
2023/09/05 07:36:54;;;;;;;1.47;0.90;;;23.80;88.40;;;;;;4946004;28;20953;-80
2023/09/05 07:39:24;;;;;;;1.50;0.90;;;23.90;87.10;;;;;;4961840;28;20471;-80
2023/09/05 07:41:51;;;;;;;1.50;1.00;;;24.00;86.80;;;;;;4952328;28;20508;-81
2023/09/05 07:44:19;;;;;;;1.40;0.90;;;24.00;86.40;;;;;;4962294;28;20494;-78
2023/09/05 07:46:46;;;;;;;1.50;0.90;;;24.10;86.70;;;;;;4952520;28;20500;-77
2023/09/05 07:49:14;;;;;;;1.47;0.90;;;24.30;86.70;;;;;;4960770;28;21064;-80
2023/09/05 07:52:02;;;;;;;1.50;0.90;;;24.40;85.70;;;;;;4950656;28;20567;-80
2023/09/05 07:54:30;;;;;;;1.47;0.87;;;24.40;85.20;;;;;;4955626;28;20497;-84
2023/09/05 07:56:57;;;;;;;1.60;1.10;;;24.50;85.30;;;;;;4949219;28;20507;-83
2023/09/05 07:59:35;;;;;;;1.43;0.90;;;24.50;85.20;;;;;;4956067;28;20996;-82
2023/09/05 08:02:04;;;;;;;1.47;0.90;;;24.70;85.10;;;;;;4952259;28;20505;-80
2023/09/05 08:04:31;;;;;;;1.43;0.90;;;24.70;84.90;;;;;;4958158;28;20463;-78
2023/09/05 08:06:58;;;;;;;1.47;0.90;;;24.80;84.10;;;;;;4944181;28;21129;-80
2023/09/05 08:09:25;;;;;;;1.47;0.90;;;24.80;84.50;;;;;;4952655;28;20494;-79
2023/09/05 08:11:53;;;;;;;1.50;0.90;;;24.90;84.60;;;;;;4945242;28;21263;-79
2023/09/05 08:14:20;;;;;;;1.50;0.90;;;25.00;84.50;;;;;;4953910;28;20473;-81
2023/09/05 08:16:47;;;;;;;1.93;1.63;;;25.10;84.40;;;;;;4948267;28;20497;-81
2023/09/05 08:19:14;;;;;;;1.50;0.90;;;25.30;84.50;;;;;;4958314;28;21037;-80
2023/09/05 08:21:41;;;;;;;1.50;0.90;;;25.40;83.40;;;;;;4949976;28;20483;-79
2023/09/05 08:24:09;;;;;;;1.50;0.80;;;25.50;82.80;;;;;;4962412;28;20470;-84
2023/09/05 08:26:37;;;;;;;1.50;0.80;;;25.50;82.20;;;;;;4951064;28;20786;-80
2023/09/05 08:29:06;;;;;;;1.47;0.90;;;25.60;82.60;;;;;;4963334;28;20504;-80
2023/09/05 08:31:32;;;;;;;1.47;0.80;;;25.60;82.50;;;;;;4951345;28;21109;-80
2023/09/05 08:33:59;;;;;;;1.50;1.00;;;25.70;82.60;;;;;;4962408;28;21104;-81
2023/09/05 08:36:29;;;;;;;1.50;0.90;;;25.80;82.40;;;;;;4943954;28;20586;-81
2023/09/05 08:38:56;;;;;;;1.50;0.90;;;25.80;81.90;;;;;;4959443;28;20499;-78
2023/09/05 08:41:23;;;;;;;1.47;0.80;;;25.80;81.70;;;;;;4948203;28;20481;-79
2023/09/05 08:43:50;;;;;;;1.50;0.80;;;25.80;81.80;;;;;;4956556;28;21028;-79
2023/09/05 08:46:19;;;;;;;1.50;1.10;;;25.90;81.70;;;;;;4946657;28;20549;-78
2023/09/05 08:48:45;;;;;;;1.43;0.80;;;25.90;81.90;;;;;;4955682;28;20562;-79
2023/09/05 08:51:15;;;;;;;1.50;0.90;;;26.00;82.40;;;;;;4946455;28;20632;-81
2023/09/05 08:53:46;;;;;;;1.50;0.90;;;26.10;81.70;;;;;;4965826;28;20911;-81
2023/09/05 08:56:18;;;;;;;1.43;0.90;;;26.10;81.00;;;;;;4942118;28;20511;-84
2023/09/05 08:58:46;;;;;;;1.50;1.00;;;26.20;81.10;;;;;;4958961;28;20463;-79
2023/09/05 09:01:13;;;;;;;1.50;1.00;;;26.20;81.10;;;;;;4943818;28;20544;-79
2023/09/05 09:03:44;;;;;;;1.47;0.80;;;26.30;81.50;;;;;;4962747;28;20462;-83
2023/09/05 09:06:11;;;;;;;1.40;0.80;;;26.40;80.70;;;;;;4943729;28;20473;-84
2023/09/05 09:08:43;;;;;;;1.40;0.87;;;26.50;80.60;;;;;;4959648;28;20848;-82
2023/09/05 09:11:11;;;;;;;1.43;0.90;;;26.70;80.00;;;;;;4944983;28;20500;-84
2023/09/05 09:13:38;;;;;;;1.40;0.80;;;26.90;79.00;;;;;;4952084;28;20490;-85
2023/09/05 09:16:05;;;;;;;1.40;0.83;;;26.90;79.70;;;;;;4944101;28;20906;-82
2023/09/05 09:18:33;;;;;;;1.50;0.90;;;27.00;81.00;;;;;;4968921;28;20885;-82
2023/09/05 09:21:18;;;;;;;1.40;0.80;;;27.10;79.50;;;;;;4944922;28;20863;-82
2023/09/05 09:23:45;;;;;;;1.43;0.90;;;27.20;78.40;;;;;;4965559;28;20465;-85
2023/09/05 09:26:18;;;;;;;1.50;0.90;;;27.30;77.50;;;;;;4946373;28;20481;-82
2023/09/05 09:28:57;;;;;;;1.40;0.80;;;27.30;78.10;;;;;;4969333;28;20938;-81
2023/09/05 09:31:27;;;;;;;1.47;0.90;;;27.40;77.30;;;;;;4950281;28;20609;-82
2023/09/05 09:37:13;;;;;;;1.47;0.90;;;27.50;77.40;;;;;;4946358;28;20505;-81
2023/09/05 09:39:39;;;;;;;1.43;0.90;;;27.40;76.60;;;;;;4941220;28;20502;-82
2023/09/05 09:42:11;;;;;;;1.50;0.80;;;27.30;76.50;;;;;;4942705;28;21083;-81
2023/09/05 09:44:38;;;;;;;1.40;0.80;;;27.50;77.60;;;;;;4948837;28;20494;-81
2023/09/05 09:47:05;;;;;;;1.50;1.10;;;27.60;76.90;;;;;;4935299;28;21088;-81
2023/09/05 09:49:33;;;;;;;1.40;0.80;;;27.70;76.40;;;;;;4944714;28;20485;-82
2023/09/05 09:52:05;;;;;;;1.47;0.80;;;27.90;76.40;;;;;;4942721;28;20537;-80
2023/09/05 09:54:37;;;;;;;1.47;0.80;;;28.10;77.10;;;;;;4948744;28;20969;-80
2023/09/05 09:57:12;;;;;;;1.43;0.80;;;28.30;75.30;;;;;;4936846;28;21000;-80
2023/09/05 09:59:44;;;;;;;1.47;0.80;;;28.10;75.90;;;;;;4940194;28;20777;-81
2023/09/05 10:02:16;;;;;;;1.47;0.80;;;28.20;75.60;;;;;;4944501;28;20568;-79
2023/09/05 10:04:44;;;;;;;1.43;0.80;;;28.40;76.10;;;;;;4945259;28;20576;-80
2023/09/05 10:07:14;;;;;;;1.40;0.80;;;28.60;76.10;;;;;;4943664;28;20497;-81
2023/09/05 10:09:43;;;;;;;1.43;0.80;;;28.70;76.10;;;;;;4947000;28;20478;-83
2023/09/05 10:12:13;;;;;;;1.43;0.80;;;28.90;75.10;;;;;;4944721;28;20542;-82
2023/09/05 10:14:41;;;;;;;1.40;0.80;;;29.10;74.20;;;;;;4948352;28;21150;-82
2023/09/05 10:17:13;;;;;;;1.40;0.80;;;29.00;74.20;;;;;;4944116;28;20811;-85
2023/09/05 10:19:41;;;;;;;1.43;0.80;;;28.90;74.30;;;;;;4953100;28;20551;-81
2023/09/05 10:22:16;;;;;;;1.47;0.90;;;28.90;74.90;;;;;;4944753;28;20474;-82
2023/09/05 10:25:26;;;;;;;1.47;0.80;;;29.00;74.70;;;;;;4953126;28;20454;-82
2023/09/05 10:27:56;;;;;;;1.40;0.80;;;29.20;73.90;;;;;;4952849;28;20501;-82
2023/09/05 10:30:23;;;;;;;1.50;0.90;;;29.40;74.30;;;;;;4941175;28;20478;-83
2023/09/05 10:32:53;;;;;;;1.43;0.80;;;29.40;74.20;;;;;;4949937;28;20486;-81
2023/09/05 10:35:22;;;;;;;1.50;0.80;;;29.40;74.10;;;;;;4943037;28;20900;-81
2023/09/05 10:38:09;;;;;;;1.43;0.80;;;29.50;73.70;;;;;;4956479;28;20477;-82
2023/09/05 10:40:37;;;;;;;1.50;0.90;;;29.60;73.50;;;;;;4942592;28;20471;-81
2023/09/05 10:43:06;;;;;;;1.47;0.80;;;29.60;73.50;;;;;;4948635;28;20478;-82
2023/09/05 10:45:35;;;;;;;1.47;0.90;;;29.60;72.70;;;;;;4942895;28;20957;-82
2023/09/05 10:48:15;;;;;;;1.47;0.90;;;29.50;73.10;;;;;;4945645;28;20500;-83
2023/09/05 10:51:10;;;;;;;1.50;0.90;;;29.70;73.20;;;;;;4944139;28;20464;-82
2023/09/05 10:53:40;;;;;;;1.43;0.80;;;29.80;72.40;;;;;;4926082;28;20520;-82
2023/09/05 10:56:43;;;;;;;1.40;0.80;;;29.70;72.30;;;;;;4918369;28;21007;-81
2023/09/05 10:59:26;;;;;;;1.43;0.80;;;29.70;73.10;;;;;;4952311;28;20515;-85
2023/09/05 11:01:56;;;;;;;1.43;0.80;;;29.80;72.80;;;;;;4942833;28;20520;-82
2023/09/05 11:04:27;;;;;;;1.50;0.90;;;29.80;72.60;;;;;;4951735;28;20494;-81
2023/09/05 11:07:02;;;;;;;2.33;1.47;;;29.90;72.50;;;;;;4940709;28;20485;-82
2023/09/05 11:09:44;;;;;;;1.47;0.80;;;29.80;72.70;;;;;;4939898;28;20473;-81
2023/09/05 11:12:12;;;;;;;1.43;0.80;;;29.90;72.80;;;;;;4942520;28;20919;-80
2023/09/05 11:14:39;;;;;;;1.50;0.80;;;30.00;72.40;;;;;;4949758;28;20486;-80
2023/09/05 11:17:08;;;;;;;1.40;0.80;;;30.00;71.80;;;;;;4943683;28;20801;-80
2023/09/05 11:19:37;;;;;;;1.50;0.80;;;30.00;71.80;;;;;;4947273;28;20463;-80
2023/09/05 11:22:15;;;;;;;1.50;0.80;;;29.90;72.60;;;;;;4937191;28;20481;-80
2023/09/05 11:24:49;;;;;;;1.40;0.80;;;30.10;72.40;;;;;;4950163;28;20478;-83
2023/09/05 11:27:23;;;;;;;1.47;0.80;;;30.20;72.80;;;;;;4953446;23;20498;-81
2023/09/05 11:29:55;;;;;;;1.50;0.90;;;30.40;71.80;;;;;;4950379;28;20477;-84
2023/09/05 11:32:42;;;;;;;1.87;1.77;;;30.40;71.00;;;;;;4935050;28;20472;-83
2023/09/05 11:35:31;;;;;;;1.47;0.80;;;30.40;72.00;;;;;;4932874;29;20487;-83
2023/09/05 11:38:12;;;;;;;1.43;0.80;;;30.50;71.50;;;;;;4934071;28;21006;-81
2023/09/05 11:40:52;;;;;;;1.40;0.80;;;30.60;71.90;;;;;;4937198;29;20602;-81
2023/09/05 11:43:19;;;;;;;1.43;0.80;;;30.80;72.60;;;;;;4918494;29;20508;-82
2023/09/05 11:46:07;;;;;;;1.40;0.90;;;30.90;71.20;;;;;;4933911;29;20478;-82
2023/09/05 11:48:34;;;;;;;1.60;1.07;;;31.00;70.80;;;;;;4916787;29;20506;-81
2023/09/05 11:51:01;;;;;;;1.47;0.83;;;31.00;71.30;;;;;;4923929;28;20554;-80
2023/09/05 11:53:41;;;;;;;1.60;1.20;;;31.00;70.30;;;;;;4944341;28;20497;-81
2023/09/05 11:56:10;;;;;;;1.40;0.80;;;31.10;70.60;;;;;;4928241;23;20591;-82
2023/09/05 11:58:37;;;;;;;1.47;0.80;;;31.10;70.10;;;;;;4942684;28;20587;-81
2023/09/05 12:01:04;;;;;;;1.40;0.80;;;31.10;70.40;;;;;;4922340;28;20468;-81
2023/09/05 12:04:18;;;;;;;1.47;0.90;;;31.20;70.40;;;;;;4940426;28;20468;-82
2023/09/05 12:06:51;;;;;;;1.47;0.80;;;31.10;70.80;;;;;;4933745;23;20516;-81
2023/09/05 12:09:20;;;;;;;1.50;0.80;;;31.30;70.10;;;;;;4951656;29;22550;-81
2023/09/05 12:11:51;;;;;;;1.43;0.80;;;31.50;71.70;;;;;;4949591;29;21028;-81
2023/09/05 12:14:20;;;;;;;1.43;0.80;;;31.70;70.80;;;;;;4959289;28;20486;-80
2023/09/05 12:16:49;;;;;;;1.43;0.80;;;32.10;70.70;;;;;;4957154;23;21067;-82
2023/09/05 12:19:18;;;;;;;1.47;0.80;;;32.30;70.00;;;;;;4943122;28;20471;-81
2023/09/05 12:21:48;;;;;;;1.43;0.83;;;32.30;69.50;;;;;;4929619;28;20514;-84
2023/09/05 12:24:22;;;;;;;1.40;0.80;;;32.40;69.00;;;;;;4941018;28;20471;-82
2023/09/05 12:26:52;;;;;;;1.43;0.90;;;32.30;69.00;;;;;;4936211;23;20556;-81
2023/09/05 12:29:26;;;;;;;1.50;0.90;;;32.10;69.10;;;;;;4939279;28;20218;-81
2023/09/05 12:31:54;;;;;;;1.43;0.80;;;32.00;68.40;;;;;;4931371;28;20486;-82
2023/09/05 12:34:20;;;;;;;1.47;0.80;;;31.90;69.40;;;;;;4936036;28;20513;-81
2023/09/05 12:36:52;;;;;;;1.47;0.90;;;31.90;69.10;;;;;;4929391;28;20478;-82
2023/09/05 12:39:19;;;;;;;1.43;0.80;;;31.90;68.90;;;;;;4941062;28;20223;-82
2023/09/05 12:41:50;;;;;;;1.43;0.80;;;32.00;69.10;;;;;;4929654;28;20565;-81
2023/09/05 12:44:18;;;;;;;1.50;0.90;;;31.90;68.30;;;;;;4937755;28;20706;-82
2023/09/05 12:46:51;;;;;;;1.47;0.80;;;31.90;69.20;;;;;;4957106;23;20232;-81
2023/09/05 12:49:20;;;;;;;1.40;0.80;;;32.00;68.40;;;;;;4918990;29;20464;-82
2023/09/05 12:51:49;;;;;;;1.50;0.90;;;31.90;68.60;;;;;;4911668;29;20270;-82
2023/09/05 12:54:22;;;;;;;1.50;0.90;;;31.90;68.50;;;;;;4914437;29;20611;-82
2023/09/05 12:56:49;;;;;;;1.40;0.80;;;31.90;68.80;;;;;;4909636;29;20238;-83
2023/09/05 12:59:21;;;;;;;1.47;0.90;;;32.10;67.40;;;;;;4919711;29;20556;-81
2023/09/05 13:01:52;;;;;;;1.40;0.80;;;32.10;69.00;;;;;;4913223;29;20752;-82
2023/09/05 13:04:20;;;;;;;1.40;0.80;;;32.10;69.00;;;;;;4920316;29;20219;-81
2023/09/05 13:06:48;;;;;;;1.43;0.80;;;32.20;69.50;;;;;;4912713;29;20498;-82
2023/09/05 13:09:15;;;;;;;1.50;0.90;;;32.40;68.90;;;;;;4920627;29;20797;-84
2023/09/05 13:11:42;;;;;;;1.50;0.80;;;32.50;67.30;;;;;;4905658;29;20574;-83
2023/09/05 13:14:08;;;;;;;1.50;1.03;;;32.50;67.70;;;;;;4914705;29;20744;-81
2023/09/05 13:16:41;;;;;;;1.43;0.80;;;32.60;66.60;;;;;;4934688;23;20667;-82
2023/09/05 13:19:09;;;;;;;1.47;0.80;;;32.30;66.40;;;;;;4952545;28;20462;-82
2023/09/05 13:21:36;;;;;;;1.40;0.80;;;32.30;68.00;;;;;;4940719;28;20485;-82
2023/09/05 13:24:03;;;;;;;1.60;1.23;;;32.10;67.90;;;;;;4958079;28;20884;-81
2023/09/05 13:26:33;;;;;;;1.40;0.80;;;32.10;67.30;;;;;;4946954;28;20482;-82
2023/09/05 13:29:00;;;;;;;1.40;0.80;;;32.20;68.10;;;;;;4958252;28;20481;-83
2023/09/05 13:31:27;;;;;;;1.43;0.80;;;32.30;68.10;;;;;;4946068;28;20737;-82
2023/09/05 13:33:55;;;;;;;1.43;0.80;;;32.40;67.70;;;;;;4961689;28;20233;-82
2023/09/05 13:36:30;;;;;;;1.43;0.80;;;32.60;68.20;;;;;;4953908;23;20489;-84
2023/09/05 13:39:00;;;;;;;1.43;0.80;;;32.60;67.40;;;;;;4966140;28;20281;-83
2023/09/05 13:41:29;;;;;;;1.43;0.80;;;32.60;66.90;;;;;;4951236;28;20392;-81
2023/09/05 13:43:55;;;;;;;1.43;0.80;;;32.60;67.40;;;;;;4969678;28;20953;-82
2023/09/05 13:46:22;;;;;;;1.40;0.80;;;32.60;68.50;;;;;;4975742;23;20600;-85
2023/09/05 13:48:51;;;;;;;1.40;0.80;;;32.70;68.40;;;;;;4963977;28;20470;-82
2023/09/05 13:51:21;;;;;;;1.47;0.80;;;32.70;67.70;;;;;;4948191;28;20668;-84
2023/09/05 13:53:48;;;;;;;1.43;0.80;;;32.60;67.80;;;;;;4965924;28;20516;-83
2023/09/05 13:56:17;;;;;;;1.40;0.80;;;32.60;67.60;;;;;;4976841;23;20496;-83
2023/09/05 13:58:44;;;;;;;1.47;0.80;;;32.50;67.60;;;;;;4986793;28;20213;-82
2023/09/05 14:01:12;;;;;;;1.40;0.80;;;32.40;68.20;;;;;;4966659;28;20488;-84
2023/09/05 14:03:39;;;;;;;1.40;0.80;;;32.40;68.20;;;;;;4980776;28;20469;-82
2023/09/05 14:06:07;;;;;;;1.40;0.80;;;32.50;67.60;;;;;;4959605;28;20489;-82
2023/09/05 14:08:42;;;;;;;1.40;0.80;;;32.50;67.50;;;;;;4968442;28;20545;-83
2023/09/05 14:11:09;;;;;;;1.40;0.80;;;32.50;68.30;;;;;;4964045;28;20241;-82
2023/09/05 14:13:36;;;;;;;1.50;1.00;;;32.60;67.80;;;;;;4972844;28;20871;-82
2023/09/05 14:16:03;;;;;;;1.40;0.80;;;32.60;67.60;;;;;;4963632;23;20685;-82
2023/09/05 14:18:30;;;;;;;1.40;0.80;;;32.60;66.90;;;;;;4966036;28;20477;-82
2023/09/05 14:20:57;;;;;;;1.47;0.87;;;32.50;67.00;;;;;;4946397;28;20474;-82
2023/09/05 14:23:24;;;;;;;1.40;0.80;;;32.40;66.90;;;;;;4968689;28;20467;-82
2023/09/05 14:25:52;;;;;;;1.40;0.80;;;32.40;66.60;;;;;;4943021;28;20626;-82
2023/09/05 14:28:24;;;;;;;1.40;0.80;;;32.30;66.80;;;;;;4962572;28;20530;-82
2023/09/05 14:30:50;;;;;;;1.60;1.20;;;32.10;66.60;;;;;;4945480;28;21036;-81
2023/09/05 14:33:19;;;;;;;1.40;0.80;;;32.10;66.10;;;;;;4951876;28;21859;-82
2023/09/05 14:35:46;;;;;;;1.43;0.80;;;32.10;66.90;;;;;;4953499;28;20495;-82
2023/09/05 14:38:13;;;;;;;1.40;0.80;;;32.20;66.80;;;;;;4945213;28;20478;-83
2023/09/05 14:40:40;;;;;;;1.40;0.90;;;32.30;67.30;;;;;;4943599;28;20886;-82
2023/09/05 14:43:09;;;;;;;1.40;0.87;;;32.20;66.10;;;;;;4951423;28;20919;-82
2023/09/05 14:45:38;;;;;;;1.50;0.90;;;32.10;66.20;;;;;;4949463;28;20482;-81
2023/09/05 14:48:10;;;;;;;1.43;0.80;;;32.10;67.10;;;;;;4954526;28;20492;-82
2023/09/05 14:50:36;;;;;;;1.40;0.80;;;32.10;67.20;;;;;;4950355;28;20561;-82
2023/09/05 14:53:04;;;;;;;1.40;0.80;;;32.10;67.20;;;;;;4945960;28;20992;-81
2023/09/05 14:55:30;;;;;;;1.40;0.80;;;32.10;66.80;;;;;;4945390;28;21045;-82
2023/09/05 14:57:59;;;;;;;1.40;0.80;;;32.20;66.50;;;;;;4937204;28;20485;-82
2023/09/05 15:00:31;;;;;;;1.60;1.33;;;32.20;66.10;;;;;;4953108;28;20530;-82
2023/09/05 15:03:00;;;;;;;1.43;0.90;;;32.20;66.80;;;;;;4941351;28;20510;-82
2023/09/05 15:05:38;;;;;;;1.40;0.80;;;32.20;66.30;;;;;;4944695;28;20513;-82